Time;durP1;ratioP1;P1;durP2;ratioP2;P2;SDS_P1;SDS_P2;PMS_P1;PMS_P2;Temp;Humidity;BMP_temperature;BMP_pressure;BME280_temperature;BME280_humidity;BME280_pressure;Samples;Min_cycle;Max_cycle;Signal;HPM_P1;HPM_P2
2023/10/23 00:00:39;;;;;;;13.43;11.77;;;9.80;99.90;;;;;;5033131;28;20206;-71
2023/10/23 00:03:06;;;;;;;12.43;10.88;;;9.80;99.90;;;;;;5033870;28;20207;-71
2023/10/23 00:05:34;;;;;;;14.02;12.65;;;9.80;99.90;;;;;;5033748;28;20201;-72
2023/10/23 00:08:01;;;;;;;22.52;12.35;;;9.80;99.90;;;;;;5034139;28;20317;-71
2023/10/23 00:10:28;;;;;;;18.80;12.77;;;9.80;99.90;;;;;;5033860;28;20275;-70
2023/10/23 00:12:56;;;;;;;15.90;12.65;;;9.70;99.90;;;;;;5030988;28;20212;-72
2023/10/23 00:15:23;;;;;;;16.30;12.73;;;9.70;99.90;;;;;;5032281;28;20203;-70
2023/10/23 00:17:50;;;;;;;13.73;11.90;;;9.70;99.90;;;;;;5030527;28;20235;-71
2023/10/23 00:20:17;;;;;;;16.55;12.95;;;9.70;99.90;;;;;;5032833;28;20303;-71
2023/10/23 00:22:45;;;;;;;18.40;13.65;;;9.70;99.90;;;;;;5034417;28;20200;-72
2023/10/23 00:25:12;;;;;;;15.82;13.07;;;9.60;99.90;;;;;;5029973;28;20295;-72
2023/10/23 00:27:39;;;;;;;17.95;15.25;;;9.60;99.90;;;;;;5027330;28;20306;-71
2023/10/23 00:30:07;;;;;;;17.33;13.60;;;9.50;99.90;;;;;;5029107;28;20222;-71
2023/10/23 00:32:35;;;;;;;18.70;15.05;;;9.60;99.90;;;;;;5034476;28;20283;-71
2023/10/23 00:35:02;;;;;;;20.90;13.43;;;9.50;99.90;;;;;;5032239;28;20235;-71
2023/10/23 00:37:29;;;;;;;15.38;13.68;;;9.50;99.90;;;;;;5031647;28;20226;-72
2023/10/23 00:39:57;;;;;;;19.98;15.32;;;9.50;99.90;;;;;;5027945;28;20279;-70
2023/10/23 00:42:24;;;;;;;17.00;11.23;;;9.50;99.90;;;;;;5025685;28;20204;-72
2023/10/23 00:44:50;;;;;;;11.55;10.45;;;9.50;99.90;;;;;;5029265;28;20291;-71
2023/10/23 00:47:18;;;;;;;13.77;11.88;;;9.50;99.90;;;;;;5027875;28;20228;-70
2023/10/23 00:49:46;;;;;;;19.83;13.75;;;9.50;99.90;;;;;;5029926;28;20224;-71
2023/10/23 00:52:12;;;;;;;18.45;14.38;;;9.50;99.90;;;;;;5028198;28;20297;-71
2023/10/23 00:54:40;;;;;;;19.77;14.13;;;9.40;99.90;;;;;;5031608;28;20287;-71
2023/10/23 00:57:09;;;;;;;16.52;13.48;;;9.40;99.90;;;;;;5028703;28;20260;-70
2023/10/23 00:59:36;;;;;;;14.52;12.73;;;9.40;99.90;;;;;;5031501;28;20224;-71
2023/10/23 01:02:04;;;;;;;18.50;15.00;;;9.40;99.90;;;;;;5029793;28;20311;-70
2023/10/23 01:04:31;;;;;;;15.98;14.15;;;9.30;99.90;;;;;;5027476;28;20621;-70
2023/10/23 01:06:58;;;;;;;18.52;13.45;;;9.30;99.90;;;;;;5032667;28;20248;-70
2023/10/23 01:09:25;;;;;;;18.23;14.95;;;9.30;99.90;;;;;;5030788;28;20242;-70
2023/10/23 01:11:52;;;;;;;18.60;15.52;;;9.30;99.90;;;;;;5027898;28;20285;-71
2023/10/23 01:14:20;;;;;;;23.13;15.48;;;9.30;99.90;;;;;;5025848;28;20615;-70
2023/10/23 01:16:47;;;;;;;21.80;15.57;;;9.20;99.90;;;;;;5031926;28;20220;-71
2023/10/23 01:19:14;;;;;;;20.25;17.40;;;9.20;99.90;;;;;;5028413;28;20279;-70
2023/10/23 01:21:40;;;;;;;24.73;17.88;;;9.20;99.90;;;;;;5029149;28;20654;-70
2023/10/23 01:24:10;;;;;;;17.40;14.00;;;9.20;99.90;;;;;;5031844;28;20210;-71
2023/10/23 01:26:38;;;;;;;25.13;17.33;;;9.20;99.90;;;;;;5030854;28;20275;-71
2023/10/23 01:29:05;;;;;;;27.23;17.83;;;9.20;99.90;;;;;;5026677;28;20231;-71
2023/10/23 01:31:32;;;;;;;23.55;17.20;;;9.20;99.90;;;;;;5026881;28;20212;-71
2023/10/23 01:33:59;;;;;;;22.80;17.73;;;9.20;99.90;;;;;;5030500;28;20200;-70
2023/10/23 01:36:26;;;;;;;20.20;15.27;;;9.20;99.90;;;;;;5024891;28;20291;-71
2023/10/23 01:38:53;;;;;;;18.80;13.40;;;9.20;99.90;;;;;;5029439;28;20210;-71
2023/10/23 01:41:20;;;;;;;20.45;14.65;;;9.20;99.90;;;;;;5026890;28;20235;-71
2023/10/23 01:43:48;;;;;;;20.38;13.77;;;9.20;99.90;;;;;;5027747;28;20632;-71
2023/10/23 01:46:15;;;;;;;16.58;14.13;;;9.20;99.90;;;;;;5026331;28;20214;-72
2023/10/23 01:48:42;;;;;;;18.38;14.20;;;9.30;99.90;;;;;;5032356;28;20204;-70
2023/10/23 01:51:09;;;;;;;26.38;18.10;;;9.30;99.90;;;;;;5027145;28;20204;-70
2023/10/23 01:53:36;;;;;;;25.23;18.38;;;9.20;99.90;;;;;;5025747;28;20222;-72
2023/10/23 01:56:08;;;;;;;26.70;17.60;;;9.10;99.90;;;;;;5027413;28;20201;-72
2023/10/23 01:58:35;;;;;;;20.17;16.02;;;9.10;99.90;;;;;;5029146;28;20199;-71
2023/10/23 02:01:03;;;;;;;29.42;20.13;;;9.10;99.90;;;;;;5034951;28;20279;-71
2023/10/23 02:03:31;;;;;;;25.23;18.15;;;9.10;99.90;;;;;;5031168;28;20283;-70
2023/10/23 02:06:00;;;;;;;24.45;18.73;;;9.10;99.90;;;;;;5022975;28;20208;-71
2023/10/23 02:08:26;;;;;;;21.45;15.18;;;9.00;99.90;;;;;;5031694;28;20224;-71
2023/10/23 02:10:53;;;;;;;21.60;16.88;;;9.10;99.90;;;;;;5035692;28;20694;-71
2023/10/23 02:13:20;;;;;;;31.40;20.45;;;9.00;99.90;;;;;;5035511;28;20731;-70
2023/10/23 02:15:47;;;;;;;26.77;18.50;;;9.00;99.90;;;;;;5036178;28;20596;-71
2023/10/23 02:18:16;;;;;;;31.15;20.10;;;9.00;99.90;;;;;;5035799;28;20327;-70
2023/10/23 02:20:42;;;;;;;30.83;21.48;;;9.00;99.90;;;;;;5035401;28;20208;-70
2023/10/23 02:23:09;;;;;;;28.08;18.58;;;9.00;99.90;;;;;;5028620;28;20311;-71
2023/10/23 02:25:36;;;;;;;31.83;21.77;;;9.00;99.90;;;;;;5035914;28;20291;-71
2023/10/23 02:28:04;;;;;;;33.72;21.05;;;9.00;99.90;;;;;;5035525;28;20303;-71
2023/10/23 02:30:31;;;;;;;35.65;22.48;;;9.00;99.90;;;;;;5035207;28;20223;-71
2023/10/23 02:32:58;;;;;;;36.92;22.15;;;9.00;99.90;;;;;;5029834;28;20214;-72
2023/10/23 02:35:26;;;;;;;40.60;22.95;;;9.00;99.90;;;;;;5026677;28;20308;-72
2023/10/23 02:37:53;;;;;;;42.35;24.20;;;8.90;99.90;;;;;;5028637;28;20307;-71
2023/10/23 02:40:20;;;;;;;39.00;22.48;;;8.90;99.90;;;;;;5027627;28;20568;-71
2023/10/23 02:42:46;;;;;;;38.92;23.85;;;9.00;99.90;;;;;;5033377;28;20280;-69
2023/10/23 02:45:15;;;;;;;40.38;23.58;;;8.90;99.90;;;;;;5029273;28;20200;-72
2023/10/23 02:47:41;;;;;;;47.17;25.05;;;8.90;99.90;;;;;;5035979;28;20277;-70
2023/10/23 02:50:09;;;;;;;43.13;24.80;;;8.90;99.90;;;;;;5030669;28;20588;-72
2023/10/23 02:52:37;;;;;;;41.92;22.88;;;8.90;99.90;;;;;;5026260;28;20219;-72
2023/10/23 02:55:06;;;;;;;40.45;22.75;;;8.90;99.90;;;;;;5033473;28;20628;-72
2023/10/23 02:57:33;;;;;;;54.60;29.80;;;8.90;99.90;;;;;;5030726;28;20285;-71
2023/10/23 03:00:00;;;;;;;52.28;26.38;;;8.90;99.90;;;;;;5032501;28;20307;-71
2023/10/23 03:02:28;;;;;;;48.28;27.90;;;8.80;99.90;;;;;;5031912;28;20661;-71
2023/10/23 03:04:55;;;;;;;26.88;19.92;;;8.80;99.90;;;;;;5030166;28;20219;-72
2023/10/23 03:07:23;;;;;;;54.50;27.38;;;8.80;99.90;;;;;;5032053;28;20658;-70
2023/10/23 03:09:51;;;;;;;76.32;32.70;;;8.80;99.90;;;;;;5028915;28;20278;-72
2023/10/23 03:12:19;;;;;;;67.88;31.27;;;8.80;99.90;;;;;;5035985;28;20219;-71
2023/10/23 03:14:46;;;;;;;62.33;29.70;;;8.80;99.90;;;;;;5030431;28;20258;-72
2023/10/23 03:17:13;;;;;;;80.38;32.78;;;8.80;99.90;;;;;;5036024;28;20327;-70
2023/10/23 03:19:39;;;;;;;64.05;29.45;;;8.80;99.90;;;;;;5030402;28;20228;-71
2023/10/23 03:22:06;;;;;;;91.78;35.20;;;8.70;99.90;;;;;;5034600;28;20570;-71
2023/10/23 03:24:33;;;;;;;66.30;31.33;;;8.70;99.90;;;;;;5031146;28;20299;-71
2023/10/23 03:27:02;;;;;;;58.30;28.13;;;8.70;99.90;;;;;;5029575;28;20650;-71
2023/10/23 03:29:29;;;;;;;64.00;31.83;;;8.70;99.90;;;;;;5032134;28;20246;-71
2023/10/23 03:31:55;;;;;;;42.28;26.02;;;8.70;99.90;;;;;;5027870;28;20275;-71
2023/10/23 03:34:24;;;;;;;33.47;21.65;;;8.70;99.90;;;;;;5026823;28;20203;-71
2023/10/23 03:36:51;;;;;;;32.53;22.88;;;8.80;99.90;;;;;;5026792;28;20224;-71
2023/10/23 03:39:18;;;;;;;33.63;22.33;;;8.80;99.90;;;;;;5025806;28;20207;-71
2023/10/23 03:41:45;;;;;;;46.45;26.30;;;8.80;99.90;;;;;;5032275;28;20202;-71
2023/10/23 03:44:13;;;;;;;37.08;23.90;;;8.80;99.90;;;;;;5027652;28;20227;-71
2023/10/23 03:46:40;;;;;;;28.90;20.25;;;8.70;99.90;;;;;;5033903;28;20230;-71
2023/10/23 03:49:07;;;;;;;43.72;25.92;;;8.70;99.90;;;;;;5027768;28;20204;-71
2023/10/23 03:51:34;;;;;;;42.28;26.25;;;8.70;99.90;;;;;;5026978;28;20319;-70
2023/10/23 03:54:01;;;;;;;41.13;25.35;;;8.70;99.90;;;;;;5027577;28;20201;-71
2023/10/23 03:56:28;;;;;;;44.28;26.10;;;8.70;99.90;;;;;;5030028;28;20205;-71
2023/10/23 03:58:55;;;;;;;35.60;22.33;;;8.70;99.90;;;;;;5025725;28;20207;-72
2023/10/23 04:01:23;;;;;;;43.38;26.63;;;8.70;99.90;;;;;;5030771;28;20197;-72
2023/10/23 04:03:50;;;;;;;47.08;27.88;;;8.70;99.90;;;;;;5028870;28;20287;-72
2023/10/23 04:06:17;;;;;;;35.00;23.70;;;8.70;99.90;;;;;;5031329;28;20231;-72
2023/10/23 04:08:44;;;;;;;34.95;25.20;;;8.70;99.90;;;;;;5028195;28;20558;-71
2023/10/23 04:11:13;;;;;;;40.30;24.27;;;8.60;99.90;;;;;;5028075;28;20221;-72
2023/10/23 04:13:40;;;;;;;44.15;24.45;;;8.60;99.90;;;;;;5030068;28;20204;-72
2023/10/23 04:16:07;;;;;;;47.45;28.67;;;8.60;99.90;;;;;;5025976;28;20645;-73
2023/10/23 04:18:36;;;;;;;43.45;26.40;;;8.50;99.90;;;;;;5031055;28;20224;-73
2023/10/23 04:21:04;;;;;;;41.70;24.75;;;8.50;99.90;;;;;;5032313;28;20287;-72
2023/10/23 04:23:31;;;;;;;40.63;27.20;;;8.50;99.90;;;;;;5030597;28;20649;-74
2023/10/23 04:25:58;;;;;;;40.67;25.08;;;8.50;99.90;;;;;;5025594;28;20204;-73
2023/10/23 04:28:25;;;;;;;51.80;27.20;;;8.50;99.90;;;;;;5032505;28;20224;-72
2023/10/23 04:30:52;;;;;;;50.67;27.30;;;8.50;99.90;;;;;;5029586;28;20230;-71
2023/10/23 04:33:21;;;;;;;74.30;32.50;;;8.50;99.90;;;;;;5024599;28;20275;-73
2023/10/23 04:35:50;;;;;;;59.08;31.73;;;8.50;99.90;;;;;;5032918;28;20683;-74
2023/10/23 04:38:17;;;;;;;94.40;32.20;;;8.50;99.90;;;;;;5026694;28;20220;-73
2023/10/23 04:40:45;;;;;;;157.10;40.92;;;8.50;99.90;;;;;;5031386;28;20279;-74
2023/10/23 04:43:12;;;;;;;248.52;51.65;;;8.50;99.90;;;;;;5031179;28;20253;-76
2023/10/23 04:45:39;;;;;;;236.88;46.60;;;8.40;99.90;;;;;;5024867;28;20212;-76
2023/10/23 04:48:07;;;;;;;360.73;56.28;;;8.30;99.90;;;;;;5022231;28;20326;-75
2023/10/23 04:50:34;;;;;;;115.88;33.92;;;8.30;99.90;;;;;;5030891;28;20228;-75
2023/10/23 04:53:03;;;;;;;99.63;32.85;;;8.20;99.90;;;;;;5033453;28;20294;-72
2023/10/23 04:55:33;;;;;;;281.05;54.17;;;8.10;99.90;;;;;;5030474;28;20286;-74
2023/10/23 04:58:00;;;;;;;75.45;29.33;;;8.10;99.90;;;;;;5025649;28;20738;-75
2023/10/23 05:00:27;;;;;;;200.25;47.85;;;8.10;99.90;;;;;;5031948;28;20204;-75
2023/10/23 05:02:54;;;;;;;106.95;34.67;;;8.10;99.90;;;;;;5026610;28;20204;-75
2023/10/23 05:05:21;;;;;;;44.67;25.42;;;8.10;99.90;;;;;;5027963;28;20295;-75
2023/10/23 05:07:48;;;;;;;174.65;46.00;;;8.10;99.90;;;;;;5030474;28;20322;-75
2023/10/23 05:10:17;;;;;;;121.13;34.17;;;8.10;99.90;;;;;;5032142;28;20310;-74
2023/10/23 05:12:45;;;;;;;143.05;40.42;;;8.00;99.90;;;;;;5028738;28;20228;-75
2023/10/23 05:15:12;;;;;;;111.32;38.58;;;8.00;99.90;;;;;;5029769;28;20291;-75
2023/10/23 05:17:39;;;;;;;137.35;41.95;;;7.90;99.90;;;;;;5028336;28;20327;-75
2023/10/23 05:20:07;;;;;;;94.65;36.30;;;7.90;99.90;;;;;;5030167;28;20248;-75
2023/10/23 05:22:34;;;;;;;132.18;38.60;;;7.90;99.90;;;;;;5029383;28;20644;-75
2023/10/23 05:25:02;;;;;;;99.53;37.25;;;7.90;99.90;;;;;;5024351;28;20204;-75
2023/10/23 05:27:31;;;;;;;114.22;37.90;;;7.90;99.90;;;;;;5029622;28;20307;-74
2023/10/23 05:29:57;;;;;;;81.95;34.55;;;7.90;99.90;;;;;;5031150;28;20749;-75
2023/10/23 05:32:24;;;;;;;90.38;32.72;;;7.90;99.90;;;;;;5023206;28;20240;-74
2023/10/23 05:34:51;;;;;;;66.15;33.92;;;7.90;99.90;;;;;;5028792;28;20282;-74
2023/10/23 05:37:19;;;;;;;68.30;35.17;;;7.90;99.90;;;;;;5025752;28;20307;-75
2023/10/23 05:39:46;;;;;;;103.18;32.80;;;8.00;99.90;;;;;;5029099;28;20207;-75
2023/10/23 05:42:14;;;;;;;67.93;31.98;;;8.00;99.90;;;;;;5029114;28;20232;-74
2023/10/23 05:44:42;;;;;;;49.45;25.77;;;8.00;99.90;;;;;;5033119;28;20670;-74
2023/10/23 05:47:09;;;;;;;105.55;37.55;;;8.00;99.90;;;;;;5032008;28;20303;-75
2023/10/23 05:49:36;;;;;;;76.95;33.38;;;8.00;99.90;;;;;;5031638;28;20287;-74
2023/10/23 05:52:03;;;;;;;46.72;24.90;;;7.90;99.90;;;;;;5021786;28;20221;-74
2023/10/23 05:54:31;;;;;;;36.42;24.55;;;8.00;99.90;;;;;;5028349;28;20200;-74
2023/10/23 05:56:58;;;;;;;31.83;20.80;;;8.10;99.90;;;;;;5027217;28;20224;-76
2023/10/23 05:59:25;;;;;;;48.08;26.35;;;8.10;99.90;;;;;;5028616;28;20651;-75
2023/10/23 06:01:53;;;;;;;30.88;22.90;;;8.10;99.90;;;;;;5027471;28;20276;-76
2023/10/23 06:04:20;;;;;;;33.33;21.67;;;8.10;99.90;;;;;;5030330;28;20210;-75
2023/10/23 06:06:47;;;;;;;56.83;29.17;;;8.10;99.90;;;;;;5027696;28;20303;-76
2023/10/23 06:09:14;;;;;;;39.10;23.90;;;8.10;99.90;;;;;;5021772;28;20204;-74
2023/10/23 06:11:41;;;;;;;57.58;28.70;;;8.00;99.90;;;;;;5028516;28;20216;-75
2023/10/23 06:14:08;;;;;;;30.45;20.73;;;8.10;99.90;;;;;;5025558;28;20549;-76
2023/10/23 06:16:35;;;;;;;61.78;30.23;;;8.00;99.90;;;;;;5029957;28;20220;-76
2023/10/23 06:19:05;;;;;;;89.40;33.95;;;8.00;99.90;;;;;;5031448;28;20201;-75
2023/10/23 06:21:32;;;;;;;112.50;36.72;;;8.00;99.90;;;;;;5031657;28;20205;-75
2023/10/23 06:24:01;;;;;;;51.13;26.73;;;7.90;99.90;;;;;;5027175;28;20204;-75
2023/10/23 06:26:28;;;;;;;70.53;30.15;;;7.80;99.90;;;;;;5024185;28;20208;-75
2023/10/23 06:28:56;;;;;;;120.88;38.30;;;7.80;99.90;;;;;;5028704;28;20197;-75
2023/10/23 06:31:23;;;;;;;80.53;31.70;;;7.70;99.90;;;;;;5022396;28;20210;-76
2023/10/23 06:33:51;;;;;;;51.25;28.60;;;7.70;99.90;;;;;;5025867;28;20208;-75
2023/10/23 06:36:19;;;;;;;77.50;31.00;;;7.70;99.90;;;;;;5025861;28;20206;-75
2023/10/23 06:38:46;;;;;;;44.25;23.40;;;7.70;99.90;;;;;;5023492;28;20295;-74
2023/10/23 06:41:13;;;;;;;52.85;26.38;;;7.80;99.90;;;;;;5030366;28;20206;-76
2023/10/23 06:43:41;;;;;;;31.52;20.48;;;7.90;99.90;;;;;;5026085;28;20610;-76
2023/10/23 06:46:08;;;;;;;76.00;29.83;;;7.90;99.90;;;;;;5032541;28;20653;-75
2023/10/23 06:48:35;;;;;;;63.85;29.42;;;8.00;99.90;;;;;;5029382;28;20226;-76
2023/10/23 06:51:03;;;;;;;35.08;24.60;;;8.00;99.90;;;;;;5026172;28;20223;-75
2023/10/23 06:53:31;;;;;;;26.52;18.75;;;8.00;99.90;;;;;;5032605;28;20203;-76
2023/10/23 06:55:58;;;;;;;36.20;24.10;;;8.10;99.90;;;;;;5029389;28;20652;-75
2023/10/23 06:58:25;;;;;;;20.23;15.52;;;8.30;99.90;;;;;;5029566;28;20231;-75
2023/10/23 07:00:52;;;;;;;37.42;21.77;;;8.30;99.90;;;;;;5033868;28;20617;-75
2023/10/23 07:03:19;;;;;;;41.58;24.10;;;8.40;99.90;;;;;;5030669;28;20664;-75
2023/10/23 07:05:47;;;;;;;44.50;24.67;;;8.50;99.90;;;;;;5025421;28;20279;-76
2023/10/23 07:08:14;;;;;;;31.92;22.92;;;8.50;99.90;;;;;;5030188;28;20642;-75
2023/10/23 07:10:42;;;;;;;23.88;18.85;;;8.50;99.90;;;;;;5026987;28;20297;-75
2023/10/23 07:13:09;;;;;;;39.17;22.50;;;8.60;99.90;;;;;;5027428;28;20212;-76
2023/10/23 07:15:38;;;;;;;32.75;21.20;;;8.60;99.90;;;;;;5029729;28;20290;-75
2023/10/23 07:18:05;;;;;;;34.70;21.25;;;8.60;99.90;;;;;;5026173;28;20234;-76
2023/10/23 07:20:32;;;;;;;58.88;26.13;;;8.60;99.90;;;;;;5029569;28;20685;-76
2023/10/23 07:22:59;;;;;;;56.40;26.45;;;8.70;99.90;;;;;;5032301;28;20205;-76
2023/10/23 07:25:26;;;;;;;23.85;18.02;;;8.70;99.90;;;;;;5030302;28;20706;-76
2023/10/23 07:27:55;;;;;;;32.55;20.77;;;8.80;99.90;;;;;;5027543;28;20232;-76
2023/10/23 07:30:24;;;;;;;24.13;18.17;;;8.90;99.90;;;;;;5030011;28;20563;-76
2023/10/23 07:32:51;;;;;;;42.92;24.58;;;9.00;99.90;;;;;;5028934;28;20728;-75
2023/10/23 07:35:18;;;;;;;53.95;24.85;;;9.20;99.90;;;;;;5031315;28;20211;-75
2023/10/23 07:37:45;;;;;;;38.75;19.25;;;9.10;99.90;;;;;;5028751;28;20216;-76
2023/10/23 07:40:12;;;;;;;37.85;24.42;;;9.00;99.90;;;;;;5031507;28;20681;-76
2023/10/23 07:42:39;;;;;;;32.80;22.27;;;9.00;99.90;;;;;;5030111;28;20232;-75
2023/10/23 07:45:09;;;;;;;32.35;21.52;;;9.20;99.90;;;;;;5028072;28;20599;-75
2023/10/23 07:47:36;;;;;;;60.08;23.65;;;9.20;99.90;;;;;;5031968;28;20243;-76
2023/10/23 07:50:05;;;;;;;26.45;18.67;;;9.30;99.90;;;;;;5031448;28;20216;-75
2023/10/23 07:52:33;;;;;;;46.53;24.55;;;9.40;99.90;;;;;;5025996;28;20224;-75
2023/10/23 07:55:00;;;;;;;45.08;23.95;;;9.50;99.90;;;;;;5033000;28;20210;-77
2023/10/23 07:57:30;;;;;;;56.03;26.35;;;9.50;99.90;;;;;;5025698;28;20231;-76
2023/10/23 07:59:57;;;;;;;36.72;24.77;;;9.60;99.90;;;;;;5028036;28;20334;-74
2023/10/23 08:02:26;;;;;;;32.33;22.67;;;9.60;99.90;;;;;;5025026;28;20196;-76
2023/10/23 08:04:53;;;;;;;37.90;21.95;;;9.60;99.90;;;;;;5031067;28;20294;-75
2023/10/23 08:07:20;;;;;;;57.00;24.65;;;9.70;99.90;;;;;;5027616;28;20263;-75
2023/10/23 08:09:47;;;;;;;38.40;22.45;;;9.80;99.90;;;;;;5029481;28;20206;-75
2023/10/23 08:12:14;;;;;;;70.90;24.00;;;9.70;99.90;;;;;;5024981;28;20311;-76
2023/10/23 08:14:41;;;;;;;17.00;15.20;;;9.80;99.90;;;;;;5023048;28;20250;-76
2023/10/23 08:17:08;;;;;;;40.72;18.60;;;9.80;99.90;;;;;;5030795;28;20260;-75
2023/10/23 08:19:36;;;;;;;28.15;16.40;;;9.90;99.90;;;;;;5025916;28;20205;-75
2023/10/23 08:22:03;;;;;;;33.20;19.95;;;9.90;99.90;;;;;;5024963;28;20297;-75
2023/10/23 08:24:30;;;;;;;26.55;17.38;;;9.90;99.90;;;;;;5035589;28;20285;-75
2023/10/23 08:26:57;;;;;;;27.67;18.60;;;9.70;99.90;;;;;;5028760;28;20250;-75
2023/10/23 08:29:24;;;;;;;40.25;19.45;;;9.80;99.90;;;;;;5027903;28;20279;-76
2023/10/23 08:31:51;;;;;;;25.63;17.13;;;9.90;99.90;;;;;;5028543;28;20248;-74
2023/10/23 08:34:20;;;;;;;19.98;16.38;;;10.20;99.90;;;;;;5026387;28;20234;-73
2023/10/23 08:36:49;;;;;;;29.73;17.25;;;10.40;99.90;;;;;;5027592;28;20258;-75
2023/10/23 08:39:18;;;;;;;30.13;18.73;;;10.30;99.90;;;;;;5031327;28;20252;-74
2023/10/23 08:41:45;;;;;;;17.90;15.20;;;10.20;99.90;;;;;;5029481;28;20238;-75
2023/10/23 08:44:13;;;;;;;35.90;19.30;;;10.30;99.90;;;;;;5031290;28;20671;-75
2023/10/23 08:46:41;;;;;;;31.00;21.00;;;10.40;99.90;;;;;;5031789;28;20220;-76
2023/10/23 08:49:08;;;;;;;49.45;21.88;;;10.40;99.90;;;;;;5026851;28;20247;-75
2023/10/23 08:51:36;;;;;;;23.58;18.73;;;10.40;99.90;;;;;;5026982;28;20216;-74
2023/10/23 08:54:07;;;;;;;31.30;20.90;;;10.40;99.90;;;;;;5033362;28;20215;-75
2023/10/23 08:56:37;;;;;;;19.73;15.95;;;10.40;99.90;;;;;;5032650;28;20321;-75
2023/10/23 08:59:04;;;;;;;27.02;17.95;;;10.60;99.90;;;;;;5030642;28;20562;-75
2023/10/23 09:01:34;;;;;;;25.15;18.48;;;10.70;99.90;;;;;;5029100;28;20197;-75
2023/10/23 09:04:01;;;;;;;31.75;18.20;;;10.80;99.90;;;;;;5025607;28;20212;-76
2023/10/23 09:06:28;;;;;;;25.73;18.15;;;10.80;99.90;;;;;;5028974;28;20260;-75
2023/10/23 09:08:56;;;;;;;23.30;18.33;;;10.60;99.90;;;;;;5026486;28;20603;-74
2023/10/23 09:11:38;;;;;;;30.83;20.17;;;10.70;99.90;;;;;;5021973;28;20316;-75
2023/10/23 09:14:05;;;;;;;32.13;23.60;;;10.70;99.90;;;;;;5031814;28;20207;-74
2023/10/23 09:16:32;;;;;;;23.88;19.63;;;10.80;99.90;;;;;;5031454;28;20225;-76
2023/10/23 09:18:59;;;;;;;24.77;19.80;;;11.00;99.90;;;;;;5028247;28;20209;-75
2023/10/23 09:21:26;;;;;;;27.13;18.00;;;11.10;99.90;;;;;;5026385;28;20291;-75
2023/10/23 09:23:54;;;;;;;27.10;17.08;;;11.20;99.90;;;;;;5031874;28;20289;-75
2023/10/23 09:26:22;;;;;;;22.33;17.48;;;11.20;99.90;;;;;;5027564;28;20213;-75
2023/10/23 09:28:52;;;;;;;27.10;20.45;;;11.10;99.90;;;;;;5029640;28;20206;-75
2023/10/23 09:31:20;;;;;;;25.40;18.83;;;11.00;99.90;;;;;;5025550;28;20293;-76
2023/10/23 09:33:49;;;;;;;26.92;19.13;;;11.00;99.90;;;;;;5021900;28;20240;-76
2023/10/23 09:36:16;;;;;;;20.92;17.35;;;11.00;99.90;;;;;;5029229;28;20266;-76
2023/10/23 09:38:44;;;;;;;22.20;16.70;;;11.00;99.90;;;;;;5025580;28;20691;-75
2023/10/23 09:41:12;;;;;;;33.40;22.27;;;11.10;99.90;;;;;;5031831;28;20295;-75
2023/10/23 09:43:46;;;;;;;26.05;16.60;;;11.20;99.90;;;;;;5031638;28;20294;-75
2023/10/23 09:46:15;;;;;;;23.35;18.83;;;11.50;99.90;;;;;;5029169;28;20233;-75
2023/10/23 09:48:43;;;;;;;21.55;17.83;;;11.80;99.90;;;;;;5028308;28;20658;-75
2023/10/23 09:51:14;;;;;;;26.58;19.73;;;11.80;99.90;;;;;;5022282;28;20211;-74
2023/10/23 09:53:44;;;;;;;24.23;19.98;;;11.80;99.90;;;;;;5027713;28;20627;-75
2023/10/23 09:56:13;;;;;;;24.95;18.33;;;11.80;99.90;;;;;;5023966;28;20295;-75
2023/10/23 09:58:44;;;;;;;24.55;17.55;;;11.90;99.90;;;;;;5025238;28;20282;-75
2023/10/23 10:01:12;;;;;;;24.77;18.35;;;11.90;99.90;;;;;;5027635;28;20201;-74
2023/10/23 10:03:43;;;;;;;19.83;17.50;;;12.10;99.90;;;;;;5026492;28;20200;-74
2023/10/23 10:06:20;;;;;;;23.05;20.17;;;12.30;99.90;;;;;;5022528;28;20210;-74
2023/10/23 10:08:50;;;;;;;26.63;20.70;;;12.30;99.90;;;;;;5026318;28;20287;-73
2023/10/23 10:11:19;;;;;;;34.80;27.80;;;12.50;99.90;;;;;;5024372;28;20211;-74
2023/10/23 10:13:48;;;;;;;27.92;22.60;;;12.40;99.90;;;;;;5026965;28;20210;-74
2023/10/23 10:16:16;;;;;;;24.60;21.90;;;12.60;99.90;;;;;;5027592;28;20651;-75
2023/10/23 10:18:44;;;;;;;28.95;23.17;;;12.70;99.90;;;;;;5031195;28;20283;-74
2023/10/23 10:21:12;;;;;;;30.27;23.40;;;12.80;99.90;;;;;;5026476;28;20299;-74
2023/10/23 10:23:40;;;;;;;25.20;21.48;;;12.80;99.90;;;;;;5023425;28;20279;-75
2023/10/23 10:26:07;;;;;;;22.52;19.02;;;12.90;99.90;;;;;;5025804;28;20299;-74
2023/10/23 10:28:38;;;;;;;23.15;19.70;;;12.70;99.90;;;;;;5029732;28;20303;-74
2023/10/23 10:31:05;;;;;;;25.50;22.20;;;12.70;99.90;;;;;;5033051;28;20219;-75
2023/10/23 10:33:33;;;;;;;21.85;18.35;;;12.80;99.90;;;;;;5028693;28;20241;-74
2023/10/23 10:36:03;;;;;;;23.55;19.88;;;12.90;99.90;;;;;;5030167;28;20208;-75
2023/10/23 10:38:31;;;;;;;21.95;19.00;;;13.00;99.90;;;;;;5027416;28;20221;-74
2023/10/23 10:41:00;;;;;;;30.55;20.42;;;13.20;99.90;;;;;;5035464;28;20205;-74
2023/10/23 10:43:31;;;;;;;18.42;16.45;;;13.20;99.90;;;;;;5029914;28;20203;-74
2023/10/23 10:45:58;;;;;;;22.52;19.60;;;13.40;99.90;;;;;;5030451;28;20227;-74
2023/10/23 10:48:25;;;;;;;20.77;18.63;;;13.50;99.90;;;;;;5032574;28;20295;-74
2023/10/23 10:50:54;;;;;;;20.92;18.25;;;13.50;99.90;;;;;;5031156;28;20193;-75
2023/10/23 10:53:25;;;;;;;20.58;16.52;;;13.60;99.90;;;;;;5034961;28;20223;-74
2023/10/23 10:55:52;;;;;;;21.63;18.50;;;13.60;99.90;;;;;;5028103;28;20205;-74
2023/10/23 10:58:21;;;;;;;24.40;18.67;;;13.50;99.90;;;;;;5033917;28;20240;-74
2023/10/23 11:00:49;;;;;;;19.48;17.40;;;13.50;99.90;;;;;;5033458;28;20205;-74
2023/10/23 11:03:16;;;;;;;23.55;18.58;;;13.40;99.90;;;;;;5035166;28;20283;-74
2023/10/23 11:05:46;;;;;;;24.02;19.70;;;13.10;99.90;;;;;;5034410;28;20379;-74
2023/10/23 11:08:13;;;;;;;21.42;17.20;;;13.20;99.90;;;;;;5034842;28;20586;-74
2023/10/23 11:10:42;;;;;;;18.33;16.38;;;13.40;99.90;;;;;;5036912;28;20682;-75
2023/10/23 11:13:14;;;;;;;19.25;17.25;;;13.50;99.90;;;;;;5033249;28;20698;-73
2023/10/23 11:15:41;;;;;;;18.73;16.75;;;13.60;99.90;;;;;;5033790;28;20200;-74
2023/10/23 11:18:08;;;;;;;22.85;18.27;;;13.80;99.90;;;;;;5030054;28;20623;-74
2023/10/23 11:20:36;;;;;;;18.58;16.02;;;13.90;99.90;;;;;;5033872;28;20299;-73
2023/10/23 11:23:04;;;;;;;19.73;15.18;;;14.00;99.90;;;;;;5030365;28;20283;-74
2023/10/23 11:25:31;;;;;;;24.10;19.23;;;14.00;99.90;;;;;;5028575;28;20200;-75
2023/10/23 11:27:59;;;;;;;19.85;17.33;;;13.90;99.90;;;;;;5028584;28;20316;-74
2023/10/23 11:30:27;;;;;;;22.23;18.30;;;14.00;99.90;;;;;;5019330;28;20209;-74
2023/10/23 11:32:56;;;;;;;24.00;19.92;;;14.10;99.90;;;;;;5030147;28;20260;-74
2023/10/23 11:35:31;;;;;;;22.88;18.90;;;14.20;99.90;;;;;;5027949;28;20205;-73
2023/10/23 11:37:58;;;;;;;21.58;18.55;;;14.20;99.90;;;;;;5027665;28;20229;-73
2023/10/23 11:40:25;;;;;;;21.38;18.77;;;14.20;99.90;;;;;;5032083;28;20225;-74
2023/10/23 11:42:54;;;;;;;18.63;16.60;;;14.30;99.90;;;;;;5031004;28;20570;-73
2023/10/23 11:45:23;;;;;;;30.48;26.80;;;14.10;99.90;;;;;;5026925;28;20207;-73
2023/10/23 11:47:52;;;;;;;37.97;28.23;;;13.90;99.90;;;;;;5026630;28;20303;-73
2023/10/23 11:50:20;;;;;;;37.25;26.88;;;13.90;99.90;;;;;;5032909;28;20208;-74
2023/10/23 11:52:48;;;;;;;28.73;25.35;;;14.00;99.90;;;;;;5029202;28;20727;-74
2023/10/23 11:55:17;;;;;;;28.17;22.45;;;14.00;99.90;;;;;;5033764;28;20294;-73
2023/10/23 11:57:48;;;;;;;32.50;25.55;;;14.10;99.90;;;;;;5029362;28;20307;-74
2023/10/23 12:00:16;;;;;;;30.60;26.23;;;14.00;99.90;;;;;;5024870;28;20208;-74
2023/10/23 12:02:46;;;;;;;33.53;27.80;;;14.10;99.90;;;;;;5027992;28;20208;-74
2023/10/23 12:05:16;;;;;;;38.05;28.92;;;14.30;99.90;;;;;;5028196;28;20206;-74
2023/10/23 12:07:46;;;;;;;29.27;23.55;;;14.50;99.90;;;;;;5023732;28;20253;-73
2023/10/23 12:10:14;;;;;;;31.42;23.70;;;14.60;99.90;;;;;;5027137;28;20217;-74
2023/10/23 12:12:42;;;;;;;32.17;27.38;;;14.70;99.90;;;;;;5028694;28;20228;-74
2023/10/23 12:15:11;;;;;;;38.10;29.35;;;14.70;99.90;;;;;;5032338;28;20285;-74
2023/10/23 12:17:39;;;;;;;36.72;26.70;;;14.30;99.90;;;;;;5028165;28;20228;-74
2023/10/23 12:20:09;;;;;;;32.03;24.88;;;14.00;99.90;;;;;;5020234;28;20235;-74
2023/10/23 12:22:38;;;;;;;37.22;29.60;;;13.80;99.90;;;;;;5029801;28;20571;-74
2023/10/23 12:25:05;;;;;;;33.15;26.65;;;13.60;99.90;;;;;;5024408;28;20205;-74
2023/10/23 12:27:33;;;;;;;33.30;26.70;;;13.50;99.90;;;;;;5024527;28;20224;-74
2023/10/23 12:30:01;;;;;;;34.60;28.05;;;13.30;99.90;;;;;;5026957;28;20258;-74
2023/10/23 12:32:31;;;;;;;36.30;29.83;;;13.30;99.90;;;;;;5026515;28;20761;-75
2023/10/23 12:34:59;;;;;;;43.15;32.58;;;13.30;99.90;;;;;;5029201;28;20240;-73